sensor_id;sensor_type;location;lat;lon;timestamp;P1;durP1;ratioP1;P2;durP2;ratioP2
21488;SDS011;10906;45.194;5.684;2022-08-19T05:03:01;6.32;;;4.50;;
21488;SDS011;10906;45.194;5.684;2022-08-19T05:05:46;5.28;;;3.92;;
21488;SDS011;10906;45.194;5.684;2022-08-19T05:08:32;6.30;;;5.03;;
21488;SDS011;10906;45.194;5.684;2022-08-19T05:11:21;6.28;;;5.07;;
21488;SDS011;10906;45.194;5.684;2022-08-19T05:14:09;5.93;;;5.32;;
21488;SDS011;10906;45.194;5.684;2022-08-19T05:16:56;6.63;;;5.38;;
21488;SDS011;10906;45.194;5.684;2022-08-19T05:22:43;6.82;;;5.65;;
21488;SDS011;10906;45.194;5.684;2022-08-19T05:25:30;8.38;;;5.68;;
21488;SDS011;10906;45.194;5.684;2022-08-19T05:30:59;9.73;;;6.38;;
21488;SDS011;10906;45.194;5.684;2022-08-19T05:33:42;13.88;;;5.95;;
21488;SDS011;10906;45.194;5.684;2022-08-19T05:36:28;11.90;;;6.43;;
21488;SDS011;10906;45.194;5.684;2022-08-19T05:39:19;8.30;;;6.28;;
21488;SDS011;10906;45.194;5.684;2022-08-19T05:42:06;7.32;;;6.63;;
21488;SDS011;10906;45.194;5.684;2022-08-19T05:44:51;6.50;;;5.88;;
21488;SDS011;10906;45.194;5.684;2022-08-19T05:47:36;7.10;;;6.50;;
21488;SDS011;10906;45.194;5.684;2022-08-19T05:50:21;10.75;;;7.28;;
21488;SDS011;10906;45.194;5.684;2022-08-19T05:53:06;11.98;;;7.68;;
21488;SDS011;10906;45.194;5.684;2022-08-19T05:55:52;11.02;;;7.93;;
21488;SDS011;10906;45.194;5.684;2022-08-19T05:58:37;9.73;;;7.70;;
21488;SDS011;10906;45.194;5.684;2022-08-19T06:01:22;9.60;;;7.70;;
21488;SDS011;10906;45.194;5.684;2022-08-19T06:04:06;12.68;;;8.27;;
21488;SDS011;10906;45.194;5.684;2022-08-19T06:06:52;12.00;;;8.15;;
21488;SDS011;10906;45.194;5.684;2022-08-19T06:09:37;11.77;;;7.45;;
21488;SDS011;10906;45.194;5.684;2022-08-19T06:12:22;10.23;;;7.15;;
21488;SDS011;10906;45.194;5.684;2022-08-19T06:15:12;8.93;;;7.22;;
21488;SDS011;10906;45.194;5.684;2022-08-19T06:18:03;11.63;;;7.18;;
21488;SDS011;10906;45.194;5.684;2022-08-19T06:20:47;8.38;;;7.20;;
21488;SDS011;10906;45.194;5.684;2022-08-19T06:23:32;7.35;;;6.65;;
21488;SDS011;10906;45.194;5.684;2022-08-19T06:26:18;7.90;;;6.68;;
21488;SDS011;10906;45.194;5.684;2022-08-19T06:29:04;9.55;;;6.70;;
21488;SDS011;10906;45.194;5.684;2022-08-19T06:31:51;11.70;;;7.45;;
21488;SDS011;10906;45.194;5.684;2022-08-19T06:34:40;12.85;;;7.60;;
21488;SDS011;10906;45.194;5.684;2022-08-19T06:37:24;10.73;;;6.80;;
21488;SDS011;10906;45.194;5.684;2022-08-19T06:40:09;8.27;;;6.82;;
21488;SDS011;10906;45.194;5.684;2022-08-19T06:42:54;11.95;;;8.20;;
21488;SDS011;10906;45.194;5.684;2022-08-19T06:45:39;10.15;;;7.57;;
21488;SDS011;10906;45.194;5.684;2022-08-19T06:48:23;10.98;;;7.93;;
21488;SDS011;10906;45.194;5.684;2022-08-19T06:51:08;13.02;;;8.63;;
21488;SDS011;10906;45.194;5.684;2022-08-19T06:53:53;11.07;;;7.32;;
21488;SDS011;10906;45.194;5.684;2022-08-19T06:56:38;8.38;;;6.60;;
21488;SDS011;10906;45.194;5.684;2022-08-19T06:59:23;13.93;;;7.70;;
21488;SDS011;10906;45.194;5.684;2022-08-19T07:02:11;8.38;;;6.57;;
21488;SDS011;10906;45.194;5.684;2022-08-19T07:04:56;9.20;;;5.47;;
21488;SDS011;10906;45.194;5.684;2022-08-19T07:07:46;6.88;;;6.20;;
21488;SDS011;10906;45.194;5.684;2022-08-19T07:10:30;6.10;;;5.03;;
21488;SDS011;10906;45.194;5.684;2022-08-19T07:13:16;8.15;;;5.93;;
21488;SDS011;10906;45.194;5.684;2022-08-19T07:16:02;6.00;;;5.50;;
21488;SDS011;10906;45.194;5.684;2022-08-19T07:18:54;7.75;;;6.07;;
21488;SDS011;10906;45.194;5.684;2022-08-19T07:21:40;9.02;;;6.57;;
21488;SDS011;10906;45.194;5.684;2022-08-19T07:24:26;6.32;;;5.68;;
21488;SDS011;10906;45.194;5.684;2022-08-19T07:27:13;8.80;;;5.07;;
21488;SDS011;10906;45.194;5.684;2022-08-19T07:29:58;17.13;;;6.88;;
21488;SDS011;10906;45.194;5.684;2022-08-19T07:32:42;7.18;;;6.30;;
21488;SDS011;10906;45.194;5.684;2022-08-19T07:35:26;6.57;;;5.60;;
21488;SDS011;10906;45.194;5.684;2022-08-19T07:38:11;9.02;;;5.75;;
21488;SDS011;10906;45.194;5.684;2022-08-19T07:40:56;7.00;;;5.28;;
21488;SDS011;10906;45.194;5.684;2022-08-19T07:46:25;8.52;;;5.03;;
21488;SDS011;10906;45.194;5.684;2022-08-19T07:49:11;7.88;;;5.85;;
21488;SDS011;10906;45.194;5.684;2022-08-19T07:52:03;5.22;;;4.72;;
21488;SDS011;10906;45.194;5.684;2022-08-19T07:54:50;6.35;;;4.82;;
21488;SDS011;10906;45.194;5.684;2022-08-19T07:57:34;5.43;;;4.93;;
21488;SDS011;10906;45.194;5.684;2022-08-19T08:00:19;5.93;;;5.28;;
21488;SDS011;10906;45.194;5.684;2022-08-19T08:03:04;6.25;;;5.03;;
21488;SDS011;10906;45.194;5.684;2022-08-19T08:05:48;5.65;;;5.15;;
21488;SDS011;10906;45.194;5.684;2022-08-19T08:08:52;6.82;;;5.75;;
21488;SDS011;10906;45.194;5.684;2022-08-19T08:16:21;5.85;;;4.72;;
21488;SDS011;10906;45.194;5.684;2022-08-19T08:19:09;4.88;;;4.47;;
21488;SDS011;10906;45.194;5.684;2022-08-19T08:21:54;5.07;;;4.40;;
21488;SDS011;10906;45.194;5.684;2022-08-19T08:24:40;6.18;;;4.82;;
21488;SDS011;10906;45.194;5.684;2022-08-19T08:27:34;6.75;;;5.32;;
21488;SDS011;10906;45.194;5.684;2022-08-19T08:30:21;6.15;;;4.75;;
21488;SDS011;10906;45.194;5.684;2022-08-19T08:33:07;8.60;;;5.10;;
21488;SDS011;10906;45.194;5.684;2022-08-19T08:35:51;17.02;;;6.35;;
21488;SDS011;10906;45.194;5.684;2022-08-19T08:38:36;4.32;;;3.92;;
21488;SDS011;10906;45.194;5.684;2022-08-19T08:45:14;5.00;;;4.30;;
21488;SDS011;10906;45.194;5.684;2022-08-19T08:47:35;4.78;;;3.83;;
21488;SDS011;10906;45.194;5.684;2022-08-19T08:50:29;5.10;;;3.88;;
21488;SDS011;10906;45.194;5.684;2022-08-19T08:53:22;24.00;;;6.03;;
21488;SDS011;10906;45.194;5.684;2022-08-19T08:56:08;8.07;;;4.63;;
21488;SDS011;10906;45.194;5.684;2022-08-19T09:02:03;6.88;;;4.80;;
21488;SDS011;10906;45.194;5.684;2022-08-19T09:04:56;7.95;;;5.00;;
21488;SDS011;10906;45.194;5.684;2022-08-19T09:07:53;5.75;;;3.60;;
21488;SDS011;10906;45.194;5.684;2022-08-19T09:10:45;4.63;;;4.22;;
21488;SDS011;10906;45.194;5.684;2022-08-19T09:16:20;6.47;;;4.03;;
21488;SDS011;10906;45.194;5.684;2022-08-19T09:19:11;16.80;;;5.53;;
21488;SDS011;10906;45.194;5.684;2022-08-19T09:21:55;5.22;;;4.05;;
21488;SDS011;10906;45.194;5.684;2022-08-19T09:24:40;3.78;;;3.30;;
21488;SDS011;10906;45.194;5.684;2022-08-19T09:27:28;3.78;;;3.47;;
21488;SDS011;10906;45.194;5.684;2022-08-19T09:30:14;4.35;;;3.35;;
21488;SDS011;10906;45.194;5.684;2022-08-19T09:33:01;56.70;;;9.90;;
21488;SDS011;10906;45.194;5.684;2022-08-19T09:35:46;10.48;;;4.88;;
21488;SDS011;10906;45.194;5.684;2022-08-19T09:38:31;20.73;;;5.50;;
21488;SDS011;10906;45.194;5.684;2022-08-19T09:41:16;37.58;;;7.05;;
21488;SDS011;10906;45.194;5.684;2022-08-19T09:44:03;7.00;;;3.65;;
21488;SDS011;10906;45.194;5.684;2022-08-19T09:46:47;3.97;;;3.35;;
21488;SDS011;10906;45.194;5.684;2022-08-19T09:49:32;5.40;;;3.20;;
21488;SDS011;10906;45.194;5.684;2022-08-19T09:52:17;6.88;;;3.38;;
21488;SDS011;10906;45.194;5.684;2022-08-19T09:55:11;4.15;;;3.75;;
21488;SDS011;10906;45.194;5.684;2022-08-19T09:57:56;4.10;;;3.70;;
21488;SDS011;10906;45.194;5.684;2022-08-19T10:00:43;4.10;;;3.80;;
21488;SDS011;10906;45.194;5.684;2022-08-19T10:03:30;4.55;;;3.78;;
21488;SDS011;10906;45.194;5.684;2022-08-19T10:06:15;4.15;;;3.80;;
21488;SDS011;10906;45.194;5.684;2022-08-19T10:09:00;5.13;;;4.72;;
21488;SDS011;10906;45.194;5.684;2022-08-19T10:11:44;6.90;;;6.20;;
21488;SDS011;10906;45.194;5.684;2022-08-19T10:14:32;7.47;;;6.22;;
21488;SDS011;10906;45.194;5.684;2022-08-19T10:17:16;7.53;;;5.47;;
21488;SDS011;10906;45.194;5.684;2022-08-19T10:20:01;4.30;;;3.90;;
21488;SDS011;10906;45.194;5.684;2022-08-19T10:22:48;4.18;;;3.85;;
21488;SDS011;10906;45.194;5.684;2022-08-19T10:25:32;5.80;;;4.15;;
21488;SDS011;10906;45.194;5.684;2022-08-19T10:28:17;3.55;;;3.25;;
21488;SDS011;10906;45.194;5.684;2022-08-19T10:31:06;4.18;;;3.88;;
21488;SDS011;10906;45.194;5.684;2022-08-19T10:33:52;4.07;;;3.72;;
21488;SDS011;10906;45.194;5.684;2022-08-19T10:36:41;3.67;;;3.38;;
21488;SDS011;10906;45.194;5.684;2022-08-19T10:39:27;4.63;;;4.22;;
21488;SDS011;10906;45.194;5.684;2022-08-19T10:42:13;4.68;;;4.28;;
21488;SDS011;10906;45.194;5.684;2022-08-19T10:44:59;5.97;;;4.70;;
21488;SDS011;10906;45.194;5.684;2022-08-19T10:47:43;5.15;;;4.65;;
21488;SDS011;10906;45.194;5.684;2022-08-19T10:50:28;5.50;;;4.85;;
21488;SDS011;10906;45.194;5.684;2022-08-19T10:53:31;8.57;;;5.40;;
21488;SDS011;10906;45.194;5.684;2022-08-19T10:56:15;6.13;;;5.57;;
21488;SDS011;10906;45.194;5.684;2022-08-19T10:59:24;8.80;;;6.60;;
21488;SDS011;10906;45.194;5.684;2022-08-19T11:02:11;11.00;;;7.10;;
21488;SDS011;10906;45.194;5.684;2022-08-19T11:04:56;8.50;;;7.50;;
21488;SDS011;10906;45.194;5.684;2022-08-19T11:07:41;7.93;;;7.05;;
21488;SDS011;10906;45.194;5.684;2022-08-19T11:10:26;7.90;;;6.75;;
21488;SDS011;10906;45.194;5.684;2022-08-19T11:13:10;6.00;;;5.50;;
21488;SDS011;10906;45.194;5.684;2022-08-19T11:15:58;14.18;;;7.47;;
21488;SDS011;10906;45.194;5.684;2022-08-19T11:18:45;36.00;;;11.15;;
21488;SDS011;10906;45.194;5.684;2022-08-19T11:21:36;63.10;;;13.27;;
21488;SDS011;10906;45.194;5.684;2022-08-19T11:27:24;19.00;;;7.85;;
21488;SDS011;10906;45.194;5.684;2022-08-19T11:30:09;41.70;;;11.93;;
21488;SDS011;10906;45.194;5.684;2022-08-19T11:32:56;11.02;;;8.82;;
21488;SDS011;10906;45.194;5.684;2022-08-19T11:35:41;10.15;;;8.25;;
21488;SDS011;10906;45.194;5.684;2022-08-19T11:38:26;12.45;;;8.95;;
21488;SDS011;10906;45.194;5.684;2022-08-19T11:41:11;8.88;;;8.02;;
21488;SDS011;10906;45.194;5.684;2022-08-19T11:43:55;9.57;;;7.78;;
21488;SDS011;10906;45.194;5.684;2022-08-19T11:46:45;8.65;;;7.85;;
21488;SDS011;10906;45.194;5.684;2022-08-19T11:49:32;34.88;;;10.38;;
21488;SDS011;10906;45.194;5.684;2022-08-19T11:52:20;21.00;;;9.35;;
21488;SDS011;10906;45.194;5.684;2022-08-19T11:55:04;8.57;;;6.85;;
21488;SDS011;10906;45.194;5.684;2022-08-19T11:57:49;6.22;;;5.68;;
21488;SDS011;10906;45.194;5.684;2022-08-19T12:00:34;7.95;;;5.63;;
21488;SDS011;10906;45.194;5.684;2022-08-19T12:03:20;7.55;;;5.90;;
21488;SDS011;10906;45.194;5.684;2022-08-19T12:06:09;13.88;;;6.53;;
21488;SDS011;10906;45.194;5.684;2022-08-19T12:09:00;35.58;;;9.60;;
21488;SDS011;10906;45.194;5.684;2022-08-19T12:11:47;8.27;;;6.18;;
21488;SDS011;10906;45.194;5.684;2022-08-19T12:14:31;9.52;;;6.35;;
21488;SDS011;10906;45.194;5.684;2022-08-19T12:17:16;6.78;;;6.13;;
21488;SDS011;10906;45.194;5.684;2022-08-19T12:20:00;7.05;;;6.13;;
21488;SDS011;10906;45.194;5.684;2022-08-19T12:22:45;7.75;;;6.80;;
21488;SDS011;10906;45.194;5.684;2022-08-19T12:25:29;5.82;;;5.38;;
21488;SDS011;10906;45.194;5.684;2022-08-19T12:28:14;6.60;;;5.95;;
21488;SDS011;10906;45.194;5.684;2022-08-19T12:33:55;7.82;;;6.78;;
21488;SDS011;10906;45.194;5.684;2022-08-19T12:36:43;7.85;;;7.00;;
21488;SDS011;10906;45.194;5.684;2022-08-19T12:39:27;7.55;;;6.85;;
21488;SDS011;10906;45.194;5.684;2022-08-19T12:42:11;7.35;;;6.65;;
21488;SDS011;10906;45.194;5.684;2022-08-19T12:45:04;7.78;;;7.07;;
21488;SDS011;10906;45.194;5.684;2022-08-19T12:47:50;8.30;;;7.47;;
21488;SDS011;10906;45.194;5.684;2022-08-19T12:50:38;7.85;;;6.88;;
21488;SDS011;10906;45.194;5.684;2022-08-19T12:53:26;16.55;;;7.78;;
21488;SDS011;10906;45.194;5.684;2022-08-19T12:56:12;8.65;;;6.18;;
21488;SDS011;10906;45.194;5.684;2022-08-19T12:59:00;8.50;;;6.32;;
21488;SDS011;10906;45.194;5.684;2022-08-19T13:01:46;14.55;;;8.90;;
21488;SDS011;10906;45.194;5.684;2022-08-19T13:04:30;15.40;;;11.35;;
21488;SDS011;10906;45.194;5.684;2022-08-19T13:07:16;14.73;;;11.85;;
21488;SDS011;10906;45.194;5.684;2022-08-19T13:10:00;15.20;;;13.60;;
21488;SDS011;10906;45.194;5.684;2022-08-19T13:12:51;16.05;;;13.75;;
21488;SDS011;10906;45.194;5.684;2022-08-19T13:15:37;17.98;;;16.08;;
21488;SDS011;10906;45.194;5.684;2022-08-19T13:18:23;20.30;;;16.30;;
21488;SDS011;10906;45.194;5.684;2022-08-19T13:21:09;19.88;;;16.92;;
21488;SDS011;10906;45.194;5.684;2022-08-19T13:23:56;17.75;;;15.90;;
21488;SDS011;10906;45.194;5.684;2022-08-19T13:26:41;18.67;;;16.60;;
21488;SDS011;10906;45.194;5.684;2022-08-19T13:29:26;20.17;;;18.00;;
21488;SDS011;10906;45.194;5.684;2022-08-19T13:32:35;19.83;;;17.70;;
21488;SDS011;10906;45.194;5.684;2022-08-19T13:35:41;20.88;;;18.83;;
21488;SDS011;10906;45.194;5.684;2022-08-19T13:38:31;23.20;;;20.25;;
21488;SDS011;10906;45.194;5.684;2022-08-19T13:41:18;25.92;;;21.02;;
21488;SDS011;10906;45.194;5.684;2022-08-19T13:44:10;23.13;;;20.58;;
21488;SDS011;10906;45.194;5.684;2022-08-19T13:47:00;19.88;;;17.85;;
21488;SDS011;10906;45.194;5.684;2022-08-19T13:49:50;22.17;;;18.63;;
21488;SDS011;10906;45.194;5.684;2022-08-19T13:52:35;21.52;;;19.33;;
21488;SDS011;10906;45.194;5.684;2022-08-19T13:55:20;20.58;;;18.40;;
21488;SDS011;10906;45.194;5.684;2022-08-19T13:58:05;23.08;;;18.52;;
21488;SDS011;10906;45.194;5.684;2022-08-19T14:00:50;20.13;;;18.02;;
21488;SDS011;10906;45.194;5.684;2022-08-19T14:03:35;19.75;;;17.67;;
21488;SDS011;10906;45.194;5.684;2022-08-19T14:06:20;21.75;;;18.70;;
21488;SDS011;10906;45.194;5.684;2022-08-19T14:09:05;20.05;;;17.70;;
21488;SDS011;10906;45.194;5.684;2022-08-19T14:11:51;20.75;;;18.63;;
21488;SDS011;10906;45.194;5.684;2022-08-19T14:14:36;19.88;;;17.98;;
21488;SDS011;10906;45.194;5.684;2022-08-19T14:17:21;20.30;;;18.38;;
21488;SDS011;10906;45.194;5.684;2022-08-19T14:20:06;19.60;;;17.58;;
21488;SDS011;10906;45.194;5.684;2022-08-19T14:22:53;18.60;;;16.88;;
21488;SDS011;10906;45.194;5.684;2022-08-19T14:25:38;18.58;;;16.73;;
21488;SDS011;10906;45.194;5.684;2022-08-19T14:28:22;18.98;;;17.08;;
21488;SDS011;10906;45.194;5.684;2022-08-19T14:31:07;20.23;;;18.23;;
21488;SDS011;10906;45.194;5.684;2022-08-19T14:33:52;17.60;;;15.85;;
21488;SDS011;10906;45.194;5.684;2022-08-19T14:39:21;16.60;;;14.95;;
21488;SDS011;10906;45.194;5.684;2022-08-19T14:42:08;17.80;;;15.95;;
21488;SDS011;10906;45.194;5.684;2022-08-19T14:44:56;17.00;;;15.27;;
21488;SDS011;10906;45.194;5.684;2022-08-19T14:47:42;18.10;;;16.38;;
21488;SDS011;10906;45.194;5.684;2022-08-19T14:50:26;15.90;;;14.10;;
21488;SDS011;10906;45.194;5.684;2022-08-19T14:53:11;16.73;;;14.93;;
21488;SDS011;10906;45.194;5.684;2022-08-19T14:55:56;16.90;;;15.15;;
21488;SDS011;10906;45.194;5.684;2022-08-19T14:58:41;16.65;;;14.77;;
21488;SDS011;10906;45.194;5.684;2022-08-19T15:01:26;15.70;;;14.20;;
21488;SDS011;10906;45.194;5.684;2022-08-19T15:04:11;15.82;;;14.20;;
21488;SDS011;10906;45.194;5.684;2022-08-19T15:06:56;15.30;;;13.80;;
21488;SDS011;10906;45.194;5.684;2022-08-19T15:12:25;16.00;;;14.50;;
21488;SDS011;10906;45.194;5.684;2022-08-19T15:15:10;16.08;;;14.57;;
21488;SDS011;10906;45.194;5.684;2022-08-19T15:17:56;14.60;;;13.13;;
21488;SDS011;10906;45.194;5.684;2022-08-19T15:20:48;16.88;;;15.18;;
21488;SDS011;10906;45.194;5.684;2022-08-19T15:23:33;15.95;;;14.25;;
21488;SDS011;10906;45.194;5.684;2022-08-19T15:26:19;14.13;;;12.75;;
21488;SDS011;10906;45.194;5.684;2022-08-19T15:29:04;16.20;;;14.60;;
21488;SDS011;10906;45.194;5.684;2022-08-19T15:31:48;16.33;;;14.02;;
21488;SDS011;10906;45.194;5.684;2022-08-19T15:34:34;15.90;;;14.20;;
21488;SDS011;10906;45.194;5.684;2022-08-19T15:37:19;14.25;;;12.77;;
21488;SDS011;10906;45.194;5.684;2022-08-19T15:42:57;14.55;;;13.10;;
21488;SDS011;10906;45.194;5.684;2022-08-19T15:45:43;14.68;;;12.93;;
21488;SDS011;10906;45.194;5.684;2022-08-19T15:48:28;15.32;;;13.73;;
21488;SDS011;10906;45.194;5.684;2022-08-19T15:51:12;13.30;;;12.02;;
21488;SDS011;10906;45.194;5.684;2022-08-19T15:54:00;14.35;;;12.95;;
21488;SDS011;10906;45.194;5.684;2022-08-19T15:56:46;13.27;;;11.93;;
21488;SDS011;10906;45.194;5.684;2022-08-19T15:59:50;13.55;;;12.10;;
21488;SDS011;10906;45.194;5.684;2022-08-19T16:02:53;12.55;;;11.40;;
21488;SDS011;10906;45.194;5.684;2022-08-19T16:05:56;12.18;;;10.35;;
21488;SDS011;10906;45.194;5.684;2022-08-19T16:11:56;10.73;;;9.63;;
21488;SDS011;10906;45.194;5.684;2022-08-19T16:14:44;14.02;;;12.63;;
21488;SDS011;10906;45.194;5.684;2022-08-19T16:17:30;12.18;;;10.98;;
21488;SDS011;10906;45.194;5.684;2022-08-19T16:20:14;12.90;;;11.60;;
21488;SDS011;10906;45.194;5.684;2022-08-19T16:22:59;11.75;;;10.65;;
21488;SDS011;10906;45.194;5.684;2022-08-19T16:25:45;11.27;;;10.27;;
21488;SDS011;10906;45.194;5.684;2022-08-19T16:28:30;11.13;;;10.02;;
21488;SDS011;10906;45.194;5.684;2022-08-19T16:31:14;11.80;;;10.57;;
21488;SDS011;10906;45.194;5.684;2022-08-19T16:33:59;11.88;;;10.35;;
21488;SDS011;10906;45.194;5.684;2022-08-19T16:36:43;11.20;;;10.10;;
21488;SDS011;10906;45.194;5.684;2022-08-19T16:39:28;13.30;;;10.50;;
21488;SDS011;10906;45.194;5.684;2022-08-19T16:42:13;11.90;;;10.68;;
21488;SDS011;10906;45.194;5.684;2022-08-19T16:44:57;10.90;;;9.90;;
21488;SDS011;10906;45.194;5.684;2022-08-19T16:47:42;10.63;;;9.45;;
21488;SDS011;10906;45.194;5.684;2022-08-19T16:50:26;11.02;;;9.27;;
21488;SDS011;10906;45.194;5.684;2022-08-19T16:53:10;11.20;;;10.18;;
21488;SDS011;10906;45.194;5.684;2022-08-19T16:55:54;10.52;;;9.10;;
21488;SDS011;10906;45.194;5.684;2022-08-19T16:58:39;10.57;;;9.55;;
21488;SDS011;10906;45.194;5.684;2022-08-19T17:01:25;12.48;;;9.93;;
21488;SDS011;10906;45.194;5.684;2022-08-19T17:04:10;13.27;;;10.02;;
21488;SDS011;10906;45.194;5.684;2022-08-19T17:06:55;11.73;;;10.60;;
21488;SDS011;10906;45.194;5.684;2022-08-19T17:09:40;10.60;;;9.50;;
21488;SDS011;10906;45.194;5.684;2022-08-19T17:12:25;12.23;;;10.82;;
21488;SDS011;10906;45.194;5.684;2022-08-19T17:15:11;11.52;;;10.02;;
21488;SDS011;10906;45.194;5.684;2022-08-19T17:18:03;10.80;;;9.75;;
21488;SDS011;10906;45.194;5.684;2022-08-19T17:20:49;12.50;;;10.23;;
21488;SDS011;10906;45.194;5.684;2022-08-19T17:23:35;11.80;;;10.60;;
21488;SDS011;10906;45.194;5.684;2022-08-19T17:26:20;14.25;;;10.85;;
21488;SDS011;10906;45.194;5.684;2022-08-19T17:29:05;11.77;;;10.77;;
21488;SDS011;10906;45.194;5.684;2022-08-19T17:31:50;13.13;;;11.85;;
21488;SDS011;10906;45.194;5.684;2022-08-19T17:34:35;12.30;;;10.98;;
21488;SDS011;10906;45.194;5.684;2022-08-19T17:37:19;12.73;;;11.45;;
21488;SDS011;10906;45.194;5.684;2022-08-19T17:40:06;14.57;;;10.95;;
21488;SDS011;10906;45.194;5.684;2022-08-19T17:42:54;13.02;;;11.60;;
21488;SDS011;10906;45.194;5.684;2022-08-19T17:45:39;14.55;;;11.23;;
21488;SDS011;10906;45.194;5.684;2022-08-19T17:48:24;12.25;;;11.05;;
21488;SDS011;10906;45.194;5.684;2022-08-19T17:54:23;14.38;;;12.20;;
21488;SDS011;10906;45.194;5.684;2022-08-19T17:57:07;12.73;;;11.38;;
21488;SDS011;10906;45.194;5.684;2022-08-19T17:59:52;13.68;;;11.02;;
21488;SDS011;10906;45.194;5.684;2022-08-19T18:02:49;13.55;;;11.73;;
21488;SDS011;10906;45.194;5.684;2022-08-19T18:05:39;12.73;;;10.75;;
21488;SDS011;10906;45.194;5.684;2022-08-19T18:08:25;13.95;;;11.50;;
21488;SDS011;10906;45.194;5.684;2022-08-19T18:11:10;12.50;;;11.20;;
21488;SDS011;10906;45.194;5.684;2022-08-19T18:13:54;12.57;;;11.25;;
21488;SDS011;10906;45.194;5.684;2022-08-19T18:16:42;11.48;;;10.35;;
21488;SDS011;10906;45.194;5.684;2022-08-19T18:19:27;11.13;;;10.07;;
21488;SDS011;10906;45.194;5.684;2022-08-19T18:22:20;11.07;;;10.05;;
21488;SDS011;10906;45.194;5.684;2022-08-19T18:25:19;12.23;;;10.68;;
21488;SDS011;10906;45.194;5.684;2022-08-19T18:28:08;12.32;;;11.13;;
21488;SDS011;10906;45.194;5.684;2022-08-19T18:30:52;12.90;;;10.88;;
21488;SDS011;10906;45.194;5.684;2022-08-19T18:33:36;11.07;;;10.02;;
21488;SDS011;10906;45.194;5.684;2022-08-19T18:36:20;12.13;;;10.82;;
21488;SDS011;10906;45.194;5.684;2022-08-19T18:39:05;12.55;;;11.35;;
21488;SDS011;10906;45.194;5.684;2022-08-19T18:42:12;14.25;;;11.20;;
21488;SDS011;10906;45.194;5.684;2022-08-19T18:45:24;13.07;;;10.95;;
21488;SDS011;10906;45.194;5.684;2022-08-19T18:48:30;13.38;;;11.15;;
21488;SDS011;10906;45.194;5.684;2022-08-19T18:51:34;12.45;;;10.43;;
21488;SDS011;10906;45.194;5.684;2022-08-19T18:54:18;11.00;;;9.95;;
21488;SDS011;10906;45.194;5.684;2022-08-19T18:57:05;11.85;;;10.77;;
21488;SDS011;10906;45.194;5.684;2022-08-19T18:59:50;12.50;;;11.20;;
21488;SDS011;10906;45.194;5.684;2022-08-19T19:02:37;10.57;;;9.60;;
21488;SDS011;10906;45.194;5.684;2022-08-19T19:05:21;10.90;;;9.25;;
21488;SDS011;10906;45.194;5.684;2022-08-19T19:08:07;11.18;;;9.32;;
21488;SDS011;10906;45.194;5.684;2022-08-19T19:10:51;10.23;;;9.23;;
21488;SDS011;10906;45.194;5.684;2022-08-19T19:13:38;10.57;;;9.57;;
21488;SDS011;10906;45.194;5.684;2022-08-19T19:16:23;12.18;;;11.02;;
21488;SDS011;10906;45.194;5.684;2022-08-19T19:19:07;14.48;;;9.90;;
21488;SDS011;10906;45.194;5.684;2022-08-19T19:21:55;9.55;;;8.35;;
21488;SDS011;10906;45.194;5.684;2022-08-19T19:24:41;9.77;;;8.88;;
21488;SDS011;10906;45.194;5.684;2022-08-19T19:27:28;9.75;;;8.80;;
21488;SDS011;10906;45.194;5.684;2022-08-19T19:30:14;9.82;;;8.93;;
21488;SDS011;10906;45.194;5.684;2022-08-19T19:32:59;9.55;;;8.65;;
21488;SDS011;10906;45.194;5.684;2022-08-19T19:35:44;10.93;;;8.80;;
21488;SDS011;10906;45.194;5.684;2022-08-19T19:38:29;10.20;;;8.27;;
21488;SDS011;10906;45.194;5.684;2022-08-19T19:41:14;11.75;;;9.60;;
21488;SDS011;10906;45.194;5.684;2022-08-19T19:44:01;9.68;;;8.48;;
21488;SDS011;10906;45.194;5.684;2022-08-19T19:46:46;12.07;;;9.02;;
21488;SDS011;10906;45.194;5.684;2022-08-19T19:49:31;9.02;;;8.13;;
21488;SDS011;10906;45.194;5.684;2022-08-19T19:52:16;13.30;;;8.55;;
21488;SDS011;10906;45.194;5.684;2022-08-19T19:55:00;10.00;;;9.00;;
21488;SDS011;10906;45.194;5.684;2022-08-19T19:57:48;9.75;;;8.85;;
21488;SDS011;10906;45.194;5.684;2022-08-19T20:00:35;12.40;;;9.70;;
21488;SDS011;10906;45.194;5.684;2022-08-19T20:03:20;12.07;;;10.82;;
21488;SDS011;10906;45.194;5.684;2022-08-19T20:06:05;12.55;;;11.32;;
21488;SDS011;10906;45.194;5.684;2022-08-19T20:08:50;12.95;;;10.20;;
21488;SDS011;10906;45.194;5.684;2022-08-19T20:11:55;13.25;;;11.85;;
21488;SDS011;10906;45.194;5.684;2022-08-19T20:14:44;13.93;;;11.57;;
21488;SDS011;10906;45.194;5.684;2022-08-19T20:17:28;14.13;;;12.43;;
21488;SDS011;10906;45.194;5.684;2022-08-19T20:20:14;15.38;;;10.80;;
21488;SDS011;10906;45.194;5.684;2022-08-19T20:23:00;11.35;;;10.07;;
21488;SDS011;10906;45.194;5.684;2022-08-19T20:25:45;14.60;;;12.45;;
21488;SDS011;10906;45.194;5.684;2022-08-19T20:28:30;12.77;;;10.60;;
21488;SDS011;10906;45.194;5.684;2022-08-19T20:31:15;12.00;;;10.50;;
21488;SDS011;10906;45.194;5.684;2022-08-19T20:34:07;11.82;;;10.68;;
21488;SDS011;10906;45.194;5.684;2022-08-19T20:36:51;16.02;;;11.40;;
21488;SDS011;10906;45.194;5.684;2022-08-19T20:39:39;11.82;;;10.52;;
21488;SDS011;10906;45.194;5.684;2022-08-19T20:42:23;12.75;;;11.27;;
21488;SDS011;10906;45.194;5.684;2022-08-19T20:45:08;12.55;;;11.35;;
21488;SDS011;10906;45.194;5.684;2022-08-19T20:47:57;14.13;;;11.27;;
21488;SDS011;10906;45.194;5.684;2022-08-19T20:50:42;15.00;;;11.45;;
21488;SDS011;10906;45.194;5.684;2022-08-19T20:53:26;13.73;;;11.20;;
21488;SDS011;10906;45.194;5.684;2022-08-19T20:56:10;13.15;;;11.85;;
21488;SDS011;10906;45.194;5.684;2022-08-19T20:58:55;16.40;;;11.90;;
21488;SDS011;10906;45.194;5.684;2022-08-19T21:01:39;17.42;;;13.20;;
21488;SDS011;10906;45.194;5.684;2022-08-19T21:04:24;16.95;;;13.65;;
21488;SDS011;10906;45.194;5.684;2022-08-19T21:07:09;16.88;;;11.82;;
21488;SDS011;10906;45.194;5.684;2022-08-19T21:09:54;13.43;;;12.02;;
21488;SDS011;10906;45.194;5.684;2022-08-19T21:12:38;12.27;;;11.07;;
21488;SDS011;10906;45.194;5.684;2022-08-19T21:15:24;11.40;;;10.23;;
21488;SDS011;10906;45.194;5.684;2022-08-19T21:18:09;13.52;;;10.57;;
21488;SDS011;10906;45.194;5.684;2022-08-19T21:20:55;12.40;;;10.48;;
21488;SDS011;10906;45.194;5.684;2022-08-19T21:23:40;13.35;;;12.00;;
21488;SDS011;10906;45.194;5.684;2022-08-19T21:26:24;17.23;;;11.40;;
21488;SDS011;10906;45.194;5.684;2022-08-19T21:29:08;16.85;;;12.02;;
21488;SDS011;10906;45.194;5.684;2022-08-19T21:31:53;13.05;;;11.75;;
21488;SDS011;10906;45.194;5.684;2022-08-19T21:34:37;14.88;;;12.35;;
21488;SDS011;10906;45.194;5.684;2022-08-19T21:37:22;16.02;;;12.98;;
21488;SDS011;10906;45.194;5.684;2022-08-19T21:40:07;15.63;;;12.13;;
21488;SDS011;10906;45.194;5.684;2022-08-19T21:42:51;15.25;;;12.70;;
21488;SDS011;10906;45.194;5.684;2022-08-19T21:45:36;11.90;;;10.73;;
21488;SDS011;10906;45.194;5.684;2022-08-19T21:48:20;14.15;;;10.57;;
21488;SDS011;10906;45.194;5.684;2022-08-19T21:51:05;11.15;;;9.85;;
21488;SDS011;10906;45.194;5.684;2022-08-19T21:53:50;10.73;;;9.00;;
21488;SDS011;10906;45.194;5.684;2022-08-19T21:56:34;13.57;;;9.93;;
21488;SDS011;10906;45.194;5.684;2022-08-19T21:59:19;10.80;;;9.40;;
